createdAt,value
2019-04-30T00:04:07.639Z,11.70
2019-04-30T00:09:29.805Z,11.78
2019-04-30T00:14:51.948Z,11.79
2019-04-30T00:20:15.147Z,11.65
2019-04-30T00:25:37.633Z,11.71
2019-04-30T00:30:58.899Z,11.70
2019-04-30T00:36:20.746Z,11.72
2019-04-30T00:41:44.045Z,11.79
2019-04-30T00:47:08.244Z,11.74
2019-04-30T00:52:33.954Z,11.71
2019-04-30T00:57:53.790Z,11.64
2019-04-30T01:03:20.583Z,11.48
2019-04-30T01:08:42.307Z,11.40
2019-04-30T01:14:04.057Z,11.35
2019-04-30T01:19:30.112Z,11.38
2019-04-30T01:24:49.765Z,11.25
2019-04-30T01:30:13.255Z,11.22
2019-04-30T01:35:34.849Z,11.15
2019-04-30T01:40:56.795Z,11.09
2019-04-30T01:46:18.941Z,11.10
2019-04-30T01:51:42.587Z,11.05
2019-04-30T01:57:29.355Z,11.13
2019-04-30T02:02:51.231Z,11.23
2019-04-30T02:08:12.889Z,11.05
2019-04-30T02:13:34.723Z,11.11
2019-04-30T02:18:56.685Z,11.11
2019-04-30T02:24:19.176Z,11.13
2019-04-30T02:29:41.087Z,10.97
2019-04-30T02:35:25.303Z,10.99
2019-04-30T02:40:49.647Z,10.95
2019-04-30T02:46:13.664Z,10.98
2019-04-30T02:51:36.669Z,10.98
2019-04-30T02:57:14.124Z,10.91
2019-04-30T03:02:35.941Z,10.86
2019-04-30T03:07:59.988Z,10.75
2019-04-30T03:13:21.209Z,10.69
2019-04-30T03:19:00.861Z,10.59
2019-04-30T03:24:22.972Z,10.63
2019-04-30T03:29:44.842Z,10.63
2019-04-30T03:35:06.494Z,10.72
2019-04-30T03:40:30.173Z,10.80
2019-04-30T03:45:52.145Z,10.95
2019-04-30T03:51:14.324Z,10.98
2019-04-30T03:56:36.384Z,11.06
2019-04-30T04:02:12.236Z,11.08
2019-04-30T04:07:53.931Z,11.13
2019-04-30T04:13:16.076Z,11.18
2019-04-30T04:18:40.112Z,11.18
2019-04-30T04:24:01.371Z,11.18
2019-04-30T04:29:22.856Z,11.20
2019-04-30T04:34:45.057Z,11.34
2019-04-30T04:40:09.335Z,11.28
2019-04-30T04:45:30.792Z,11.42
2019-04-30T04:50:52.591Z,11.41
2019-04-30T04:56:14.323Z,11.52
2019-04-30T05:01:36.072Z,11.77
2019-04-30T05:07:00.060Z,11.97
2019-04-30T05:12:21.602Z,12.04
2019-04-30T05:17:43.137Z,12.24
2019-04-30T05:23:04.842Z,12.51
2019-04-30T05:28:26.383Z,12.72
2019-04-30T05:33:48.920Z,12.96
2019-04-30T05:39:10.402Z,13.26
2019-04-30T05:44:32.833Z,13.65
2019-04-30T05:49:54.835Z,14.12
2019-04-30T05:55:16.167Z,14.57
2019-04-30T06:00:39.948Z,14.88
2019-04-30T06:06:01.279Z,15.30
2019-04-30T06:11:41.260Z,15.75
2019-04-30T06:17:09.760Z,16.12
2019-04-30T06:22:31.742Z,16.33
2019-04-30T06:27:53.448Z,16.51
2019-04-30T06:33:15.119Z,16.65
2019-04-30T06:38:38.586Z,16.84
2019-04-30T06:44:00.515Z,17.04
2019-04-30T06:49:24.598Z,17.24
2019-04-30T06:54:46.395Z,17.51
2019-04-30T07:00:09.837Z,17.59
2019-04-30T07:05:31.710Z,17.78
2019-04-30T07:11:11.453Z,17.91
2019-04-30T07:16:33.051Z,18.31
2019-04-30T07:21:54.951Z,18.50
2019-04-30T07:27:21.768Z,18.51
2019-04-30T07:32:40.298Z,18.36
2019-04-30T07:38:04.937Z,18.38
2019-04-30T07:43:25.842Z,18.82
2019-04-30T07:48:49.964Z,19.10
2019-04-30T07:54:11.410Z,19.18
2019-04-30T07:59:32.929Z,19.18
2019-04-30T08:05:06.534Z,19.39
2019-04-30T08:10:29.702Z,19.66
2019-04-30T08:15:51.255Z,20.16
2019-04-30T08:21:12.488Z,20.45
2019-04-30T08:26:34.088Z,20.56
2019-04-30T08:31:56.012Z,20.09
2019-04-30T08:37:20.123Z,19.87
2019-04-30T08:42:41.433Z,19.81
2019-04-30T08:48:02.973Z,20.05
2019-04-30T08:53:29.798Z,20.45
2019-04-30T08:58:49.109Z,20.04
2019-04-30T09:04:10.802Z,20.44
2019-04-30T09:09:32.354Z,20.78
2019-04-30T09:14:53.992Z,19.99
2019-04-30T09:20:15.572Z,20.30
2019-04-30T09:25:37.314Z,20.51
2019-04-30T09:30:58.856Z,20.83
2019-04-30T09:36:20.957Z,21.23
2019-04-30T09:41:42.541Z,21.33
2019-04-30T09:47:04.495Z,21.14
2019-04-30T09:52:26.301Z,21.71
2019-04-30T09:57:48.936Z,22.26
2019-04-30T10:03:11.514Z,22.90
2019-04-30T10:08:47.469Z,22.81
2019-04-30T10:14:00.779Z,22.56
2019-04-30T10:19:29.272Z,22.97
2019-04-30T10:24:52.448Z,22.85
2019-04-30T10:30:21.208Z,23.18
2019-04-30T10:35:44.091Z,23.33
2019-04-30T10:46:33.418Z,23.22
2019-04-30T10:51:54.812Z,23.42
2019-04-30T10:57:18.377Z,23.61
2019-04-30T11:02:44.016Z,23.60
2019-04-30T11:08:05.854Z,23.34
2019-04-30T11:13:27.850Z,23.43
2019-04-30T11:18:49.889Z,23.47
2019-04-30T11:24:11.748Z,23.95
2019-04-30T11:29:33.617Z,23.91
2019-04-30T11:34:55.204Z,23.77
2019-04-30T11:40:31.189Z,23.98
2019-04-30T11:46:21.818Z,24.08
2019-04-30T11:51:43.676Z,24.15
2019-04-30T11:57:05.662Z,24.74
2019-04-30T12:02:41.601Z,24.61
2019-04-30T12:08:35.194Z,24.63
2019-04-30T12:13:57.084Z,24.47
2019-04-30T12:19:18.933Z,24.73
2019-04-30T12:24:40.540Z,24.33
2019-04-30T12:30:02.239Z,24.59
2019-04-30T12:35:23.852Z,24.47
2019-04-30T12:40:45.555Z,24.44
2019-04-30T12:46:08.307Z,24.22
2019-04-30T12:51:45.571Z,23.99
2019-04-30T12:57:21.310Z,23.84
2019-04-30T13:02:43.459Z,23.73
2019-04-30T13:08:05.602Z,23.98
2019-04-30T13:13:31.446Z,23.94
2019-04-30T13:18:51.253Z,24.18
2019-04-30T13:24:13.312Z,24.53
2019-04-30T13:29:46.599Z,25.23
2019-04-30T13:35:09.286Z,26.19
2019-04-30T13:40:41.453Z,27.15
2019-04-30T13:46:03.348Z,27.17
2019-04-30T13:51:24.876Z,26.27
2019-04-30T13:56:46.397Z,26.09
2019-04-30T14:02:08.811Z,25.19
2019-04-30T14:07:52.832Z,25.04
2019-04-30T14:13:14.928Z,25.00
2019-04-30T14:18:36.156Z,24.92
2019-04-30T14:23:59.484Z,24.67
2019-04-30T14:29:21.967Z,24.57
2019-04-30T14:34:43.854Z,23.97
2019-04-30T14:40:06.938Z,23.22
2019-04-30T14:45:36.667Z,22.92
2019-04-30T14:50:58.666Z,22.68
2019-04-30T14:56:29.499Z,22.51
2019-04-30T15:02:10.610Z,22.32
2019-04-30T15:07:32.732Z,21.27
2019-04-30T15:12:54.267Z,20.58
2019-04-30T15:18:16.074Z,19.20
2019-04-30T15:24:03.419Z,18.12
2019-04-30T15:29:25.044Z,18.12
2019-04-30T15:34:46.501Z,17.66
2019-04-30T15:40:09.105Z,17.66
2019-04-30T15:45:31.304Z,17.72
2019-04-30T15:50:52.949Z,17.55
2019-04-30T15:56:14.811Z,17.18
2019-04-30T16:01:36.707Z,17.03
2019-04-30T16:06:58.627Z,16.99
2019-04-30T16:12:28.639Z,17.09
2019-04-30T16:17:52.719Z,17.21
2019-04-30T16:23:14.313Z,17.31
2019-04-30T16:28:36.100Z,17.31
2019-04-30T16:33:58.189Z,17.35
2019-04-30T16:39:19.593Z,17.26
2019-04-30T16:44:41.689Z,17.11
2019-04-30T16:50:05.276Z,17.08
2019-04-30T16:55:27.197Z,17.00
2019-04-30T17:00:50.173Z,16.96
2019-04-30T17:06:16.097Z,16.91
2019-04-30T17:11:55.792Z,16.68
2019-04-30T17:17:17.466Z,16.56
2019-04-30T17:22:39.516Z,16.47
2019-04-30T17:28:01.712Z,16.47
2019-04-30T17:33:23.275Z,16.37
2019-04-30T17:38:45.416Z,16.49
2019-04-30T17:44:08.777Z,16.50
2019-04-30T17:49:30.337Z,16.51
2019-04-30T17:54:51.674Z,16.56
2019-04-30T18:00:19.275Z,16.68
2019-04-30T18:05:39.830Z,16.04
2019-04-30T18:11:01.325Z,14.36
2019-04-30T18:16:22.897Z,13.73
2019-04-30T18:21:52.079Z,13.41
2019-04-30T18:27:23.030Z,13.21
2019-04-30T18:32:45.083Z,13.15
2019-04-30T18:38:06.364Z,13.37
2019-04-30T18:43:28.727Z,13.30
2019-04-30T18:48:52.788Z,12.97
2019-04-30T18:54:14.360Z,12.82
2019-04-30T18:59:35.739Z,12.83
2019-04-30T19:04:59.432Z,12.92
2019-04-30T19:10:51.734Z,13.15
2019-04-30T19:16:31.587Z,13.35
2019-04-30T19:21:53.828Z,13.48
2019-04-30T19:27:15.674Z,13.58
2019-04-30T19:32:39.039Z,13.63
2019-04-30T19:38:01.008Z,13.72
2019-04-30T19:43:22.498Z,13.52
2019-04-30T19:48:44.502Z,13.46
2019-04-30T19:54:06.133Z,13.37
2019-04-30T19:59:29.431Z,13.28
2019-04-30T20:04:51.525Z,13.21
2019-04-30T20:10:13.527Z,13.31
2019-04-30T20:15:35.269Z,13.27
2019-04-30T20:21:00.866Z,13.27
2019-04-30T20:26:23.079Z,13.15
2019-04-30T20:31:44.874Z,13.01
2019-04-30T20:37:06.781Z,12.88
2019-04-30T20:42:32.791Z,13.08
2019-04-30T20:47:55.044Z,13.29
2019-04-30T20:53:17.095Z,13.04
2019-04-30T20:58:39.101Z,12.68
2019-04-30T21:04:02.533Z,12.56
2019-04-30T21:09:24.086Z,12.51
2019-04-30T21:14:45.956Z,12.58
2019-04-30T21:20:09.670Z,12.78
2019-04-30T21:25:31.429Z,12.98
2019-04-30T21:30:53.151Z,13.00
2019-04-30T21:36:18.915Z,13.10
2019-04-30T21:41:40.889Z,13.20
2019-04-30T21:47:02.424Z,13.30
2019-04-30T21:52:27.334Z,13.34
2019-04-30T21:57:49.650Z,13.24
2019-04-30T22:03:11.459Z,12.76
2019-04-30T22:08:32.826Z,12.71
2019-04-30T22:13:54.525Z,12.72
2019-04-30T22:19:16.274Z,12.69
2019-04-30T22:24:38.852Z,12.72
2019-04-30T22:30:00.868Z,12.68
2019-04-30T22:35:54.382Z,12.63
2019-04-30T22:41:16.527Z,12.57
2019-04-30T22:46:39.372Z,12.37
2019-04-30T22:52:01.222Z,12.22
2019-04-30T22:57:22.774Z,12.16
2019-04-30T23:02:59.606Z,11.98
2019-04-30T23:08:21.482Z,11.87
2019-04-30T23:13:43.174Z,11.62
2019-04-30T23:19:04.617Z,11.57
2019-04-30T23:24:26.175Z,11.46
2019-04-30T23:29:48.307Z,11.39
2019-04-30T23:35:10.014Z,11.21
2019-04-30T23:40:47.117Z,11.12
2019-04-30T23:46:08.900Z,10.92
2019-04-30T23:51:30.296Z,10.86
2019-04-30T23:56:53.051Z,10.80
